Time;durP1;ratioP1;P1;durP2;ratioP2;P2;SDS_P1;SDS_P2;PMS_P1;PMS_P2;Temp;Humidity;BMP_temperature;BMP_pressure;BME280_temperature;BME280_humidity;BME280_pressure;Samples;Min_cycle;Max_cycle;Signal;HPM_P1;HPM_P2
2022/01/23 00:01:09;;;;;;;11.10;5.90;;;;;;;-3.73;77.51;100500.50;432456;1274;142535;-65
2022/01/23 00:11:15;;;;;;;12.50;6.30;;;;;;;-3.78;77.54;100501.83;437410;1274;142231;-65
2022/01/23 00:21:21;;;;;;;9.90;6.40;;;;;;;-3.84;77.56;100493.90;437110;1273;140911;-63
2022/01/23 00:31:28;;;;;;;13.90;9.00;;;;;;;-3.90;77.48;100486.48;430514;1274;141359;-66
2022/01/23 00:41:35;;;;;;;14.50;7.90;;;;;;;-4.00;77.60;100484.16;444287;1273;142471;-68
2022/01/23 00:51:41;;;;;;;11.10;6.30;;;;;;;-4.07;77.70;100486.31;437367;1274;142193;-67
2022/01/23 01:01:47;;;;;;;12.70;6.50;;;;;;;-4.08;77.79;100477.91;435358;1272;142742;-68
2022/01/23 01:12:02;;;;;;;;;;;;;;;-4.13;77.93;100479.59;439110;1274;142278;-67
2022/01/23 01:32:45;;;;;;;17.70;8.50;;;;;;;-4.15;77.87;100498.36;433949;1274;143825;-67
2022/01/23 01:42:52;;;;;;;16.10;7.10;;;;;;;-4.20;77.87;100501.73;433243;1274;142959;-66
2022/01/23 01:52:59;;;;;;;17.30;9.50;;;;;;;-4.25;78.09;100507.84;431372;1273;142509;-68
2022/01/23 02:03:35;;;;;;;16.50;9.20;;;;;;;-4.28;78.13;100511.39;434890;1274;142386;-66
2022/01/23 02:13:46;;;;;;;16.90;9.20;;;;;;;-4.36;78.32;100503.09;432032;1274;142494;-67
2022/01/23 02:24:34;;;;;;;14.30;8.00;;;;;;;-4.41;78.33;100503.73;437653;1274;141747;-67
2022/01/23 02:55:26;;;;;;;17.70;9.60;;;;;;;-4.53;78.59;100509.21;431961;1274;142749;-67
2022/01/23 03:05:38;;;;;;;15.60;9.90;;;;;;;-4.50;78.65;100515.40;432534;1274;141183;-66
2022/01/23 03:16:09;;;;;;;20.50;13.20;;;;;;;-4.54;78.73;100525.95;431827;1274;142298;-67
2022/01/23 03:26:23;;;;;;;18.10;10.30;;;;;;;-4.57;78.76;100535.64;435249;1273;144714;-67
2022/01/23 03:36:29;;;;;;;19.40;10.40;;;;;;;-4.60;78.82;100530.31;442018;1273;144274;-68
2022/01/23 03:46:48;;;;;;;17.40;9.40;;;;;;;-4.61;78.82;100536.27;434684;1274;142497;-68
2022/01/23 03:56:53;;;;;;;22.20;10.70;;;;;;;-4.60;79.04;100539.70;431090;1273;141712;-68
2022/01/23 04:06:59;;;;;;;21.10;10.70;;;;;;;-4.63;79.03;100547.70;429924;1274;143723;-66
2022/01/23 04:17:37;;;;;;;22.10;11.40;;;;;;;-4.62;79.16;100551.47;429895;1274;142636;-67
2022/01/23 04:49:04;;;;;;;21.30;11.60;;;;;;;-4.56;79.64;100572.59;430547;1274;141947;-69
2022/01/23 05:09:34;;;;;;;18.60;11.80;;;;;;;-4.43;79.85;100593.95;433008;1274;142581;-67
2022/01/23 05:19:40;;;;;;;;;;;;;;;-4.37;79.76;100599.15;430067;1274;161019;-66
2022/01/23 05:29:46;;;;;;;17.50;10.40;;;;;;;-4.31;79.87;100605.39;438092;1272;128454;-67
2022/01/23 05:39:52;;;;;;;19.90;11.30;;;;;;;-4.22;79.86;100618.15;435385;1274;144786;-67
2022/01/23 05:49:57;;;;;;;15.70;10.80;;;;;;;-4.11;80.10;100624.11;429044;1274;142351;-67
2022/01/23 06:00:04;;;;;;;17.40;10.10;;;;;;;-4.05;80.01;100638.39;430364;1273;142201;-67
2022/01/23 06:10:20;;;;;;;17.10;11.50;;;;;;;-3.98;79.91;100645.14;435751;1274;142247;-67
2022/01/23 06:20:26;;;;;;;19.10;10.40;;;;;;;-3.91;80.08;100654.80;429471;1273;142989;-66
2022/01/23 06:30:33;;;;;;;17.50;9.80;;;;;;;-3.89;80.04;100669.03;436048;1273;143962;-67
2022/01/23 06:40:39;;;;;;;17.00;10.10;;;;;;;-3.79;80.14;100661.64;432359;1273;141534;-69
2022/01/23 06:50:44;;;;;;;13.80;10.10;;;;;;;-3.70;80.11;100666.52;430905;1273;210766;-66
2022/01/23 07:00:50;;;;;;;16.40;9.20;;;;;;;-3.63;80.07;100666.95;431457;1274;197658;-66
2022/01/23 07:10:56;;;;;;;17.10;12.50;;;;;;;-3.58;80.14;100687.04;430610;1274;142573;-66
2022/01/23 07:21:03;;;;;;;17.60;11.20;;;;;;;-3.47;80.09;100709.42;430997;1274;141836;-66
2022/01/23 07:31:10;;;;;;;14.90;9.60;;;;;;;-3.41;79.94;100733.28;435426;1274;141665;-66
2022/01/23 07:41:16;;;;;;;16.40;10.80;;;;;;;-3.29;80.07;100738.56;429712;1274;142962;-67
2022/01/23 07:51:22;;;;;;;18.70;11.00;;;;;;;-3.10;80.06;100754.70;430534;1273;144919;-66
2022/01/23 08:01:30;;;;;;;20.90;12.70;;;;;;;-2.93;79.99;100768.23;432269;1274;142059;-66
2022/01/23 08:11:36;;;;;;;19.50;10.80;;;;;;;-2.72;79.89;100781.14;431153;1274;141832;-65
2022/01/23 08:21:42;;;;;;;14.90;10.70;;;;;;;-2.52;79.64;100791.26;431188;1274;141771;-65
2022/01/23 08:31:48;;;;;;;15.10;10.10;;;;;;;-2.29;79.64;100794.55;431262;1275;142017;-66
2022/01/23 08:41:54;;;;;;;13.60;9.50;;;;;;;-2.14;79.31;100796.55;430682;1273;142631;-66
2022/01/23 08:52:01;;;;;;;15.00;11.10;;;;;;;-2.16;79.24;100803.40;431243;1275;141058;-65
2022/01/23 09:02:07;;;;;;;16.10;10.80;;;;;;;-1.94;79.26;100817.13;431104;1274;142388;-67
2022/01/23 09:12:29;;;;;;;16.10;10.70;;;;;;;-1.70;79.03;100829.48;431665;1273;142277;-67
2022/01/23 09:22:35;;;;;;;17.80;11.20;;;;;;;-1.54;78.81;100850.68;432087;1274;142867;-67
2022/01/23 09:32:42;;;;;;;21.60;12.20;;;;;;;-1.32;78.56;100858.73;431246;1275;142102;-67
2022/01/23 09:42:54;;;;;;;15.70;10.10;;;;;;;-1.17;78.55;100853.29;430712;1276;141575;-68
2022/01/23 09:53:00;;;;;;;17.80;11.50;;;;;;;-0.94;78.40;100853.39;432448;1275;142015;-66
2022/01/23 10:03:07;;;;;;;14.10;9.30;;;;;;;-0.74;78.08;100851.58;430510;1273;142030;-66
2022/01/23 10:13:12;;;;;;;;;;;;;;;-0.41;77.66;100847.69;431792;1274;141843;-67
2022/01/23 10:23:17;;;;;;;12.90;9.10;;;;;;;-0.06;77.24;100847.02;430437;1276;129783;-67
2022/01/23 10:33:26;;;;;;;13.60;8.40;;;;;;;0.28;77.07;100843.39;430436;1274;173321;-66
2022/01/23 10:54:16;;;;;;;15.60;9.40;;;;;;;0.35;75.95;100851.13;430770;1273;142402;-67
2022/01/23 11:04:21;;;;;;;;;;;;;;;0.56;75.60;100852.29;430623;1274;143319;-66
2022/01/23 11:24:52;;;;;;;16.50;10.70;;;;;;;0.62;75.34;100860.55;431140;1274;141720;-68
2022/01/23 11:35:05;;;;;;;16.10;9.10;;;;;;;0.58;74.95;100865.04;429815;1274;143083;-67
2022/01/23 11:55:38;;;;;;;14.50;9.70;;;;;;;0.49;74.87;100859.73;431399;1274;141021;-69
2022/01/23 12:05:46;;;;;;;15.70;11.40;;;;;;;0.63;74.85;100854.34;432935;1274;152037;-66
2022/01/23 12:26:21;;;;;;;21.00;11.60;;;;;;;0.94;74.68;100865.61;430754;1274;141303;-71
2022/01/23 12:36:31;;;;;;;17.00;11.20;;;;;;;0.97;74.25;100878.02;431031;1274;143215;-60
2022/01/23 12:46:43;;;;;;;18.50;11.50;;;;;;;0.82;74.16;100871.36;435003;1274;142585;-59
2022/01/23 12:56:50;;;;;;;21.00;13.80;;;;;;;0.79;74.27;100883.26;432921;1274;142298;-58
2022/01/23 13:07:00;;;;;;;20.40;14.20;;;;;;;0.79;74.35;100897.91;430258;1274;141516;-58
2022/01/23 13:17:26;;;;;;;19.70;13.40;;;;;;;0.69;74.22;100919.48;430243;1274;141557;-58
2022/01/23 13:37:57;;;;;;;27.60;14.10;;;;;;;0.51;74.19;100930.70;430024;1274;142645;-59
2022/01/23 13:48:36;;;;;;;23.80;15.10;;;;;;;0.58;74.46;100928.64;431051;1274;197475;-58
2022/01/23 13:58:52;;;;;;;23.20;14.30;;;;;;;0.57;74.36;100929.66;429705;1274;142523;-59
2022/01/23 14:09:07;;;;;;;21.90;15.10;;;;;;;0.56;74.34;100929.49;433862;1273;141750;-58
2022/01/23 14:19:22;;;;;;;25.00;15.50;;;;;;;0.49;74.33;100938.81;429857;1274;144160;-58
2022/01/23 14:29:29;;;;;;;22.80;14.30;;;;;;;0.25;74.19;100948.28;429124;1274;184147;-60
2022/01/23 14:39:35;;;;;;;17.10;12.60;;;;;;;0.04;74.52;100951.71;430220;1274;142849;-60
2022/01/23 14:49:45;;;;;;;20.70;13.70;;;;;;;-0.16;74.75;100954.24;428809;1277;142771;-61
2022/01/23 14:59:51;;;;;;;21.60;13.30;;;;;;;-0.32;75.28;100964.70;430652;1274;143705;-58
2022/01/23 15:09:57;;;;;;;22.20;13.30;;;;;;;-0.46;75.36;100973.27;429883;1274;142759;-58
2022/01/23 15:20:03;;;;;;;20.50;13.50;;;;;;;-0.55;75.74;100976.48;429340;1274;144737;-69
2022/01/23 15:30:13;;;;;;;22.70;13.30;;;;;;;-0.67;75.85;100986.59;430577;1274;142982;-59
2022/01/23 15:40:22;;;;;;;18.20;13.30;;;;;;;-0.77;75.97;100989.30;430120;1274;143101;-60
2022/01/23 15:50:28;;;;;;;24.20;13.80;;;;;;;-0.89;76.23;100987.34;431470;1274;142721;-60
2022/01/23 16:00:34;;;;;;;25.50;15.30;;;;;;;-0.90;76.33;101004.87;431179;1274;142440;-60
2022/01/23 16:10:40;;;;;;;23.80;14.80;;;;;;;-0.91;76.62;101012.09;429876;1274;166973;-59
2022/01/23 16:20:46;;;;;;;25.10;16.90;;;;;;;-0.94;76.78;101014.83;431373;1274;142307;-59
2022/01/23 16:30:54;;;;;;;26.20;16.00;;;;;;;-0.89;77.05;101020.02;431109;1274;142177;-58
2022/01/23 16:41:00;;;;;;;29.80;17.60;;;;;;;-0.90;76.89;101024.30;430533;1274;142496;-58
2022/01/23 16:51:07;;;;;;;29.90;18.80;;;;;;;-0.93;77.11;101015.52;431071;1274;143728;-60
2022/01/23 17:01:13;;;;;;;27.40;16.90;;;;;;;-0.95;77.08;101008.63;430140;1274;142751;-60
2022/01/23 17:11:19;;;;;;;39.40;22.10;;;;;;;-1.00;77.15;101017.70;429448;1274;144356;-59
2022/01/23 17:21:25;;;;;;;37.20;22.40;;;;;;;-1.00;77.08;101026.65;429620;1273;143018;-58
2022/01/23 17:31:31;;;;;;;31.30;20.20;;;;;;;-0.98;77.48;101023.55;430673;1273;142872;-58
2022/01/23 17:41:37;;;;;;;36.70;23.30;;;;;;;-0.98;77.36;101035.27;430087;1274;142493;-59
2022/01/23 17:51:42;;;;;;;35.80;23.20;;;;;;;-1.00;77.39;101047.09;430319;1274;142199;-59
2022/01/23 18:01:48;;;;;;;46.60;28.70;;;;;;;-1.00;77.54;101054.84;430605;1274;143285;-58
2022/01/23 18:11:55;;;;;;;70.60;44.10;;;;;;;-1.05;77.41;101058.07;430252;1274;143021;-59
2022/01/23 18:22:01;;;;;;;56.40;35.50;;;;;;;-1.11;77.75;101072.27;429931;1274;142188;-72
2022/01/23 18:32:10;;;;;;;51.10;32.90;;;;;;;-1.14;77.97;101077.08;431435;1274;143718;-63
2022/01/23 18:42:16;;;;;;;53.00;33.40;;;;;;;-1.15;77.90;101090.30;431178;1273;142781;-61
2022/01/23 18:52:22;;;;;;;80.90;53.10;;;;;;;-1.07;78.03;101099.30;430778;1274;142748;-63
2022/01/23 19:02:32;;;;;;;96.20;62.80;;;;;;;-1.03;78.09;101092.29;429516;1274;142549;-63
2022/01/23 19:12:40;;;;;;;115.10;73.80;;;;;;;-1.01;78.26;101104.33;431049;1274;142760;-65
2022/01/23 19:22:47;;;;;;;79.00;50.30;;;;;;;-1.07;78.30;101120.78;430666;1274;141935;-63
2022/01/23 19:32:54;;;;;;;120.00;73.70;;;;;;;-1.08;78.45;101121.13;430124;1274;146520;-62
2022/01/23 19:53:36;;;;;;;76.70;50.00;;;;;;;-1.09;78.82;101123.17;429025;1274;142115;-63
2022/01/23 20:03:41;;;;;;;68.30;39.80;;;;;;;-1.13;78.67;101133.10;430277;1272;142738;-62
2022/01/23 20:13:48;;;;;;;52.60;34.20;;;;;;;-1.17;78.76;101130.32;431821;1273;143667;-63
2022/01/23 20:23:53;;;;;;;;;;;;;;;-1.21;78.80;101139.40;430559;1273;143195;-63
2022/01/23 20:34:19;;;;;;;67.30;41.80;;;;;;;-1.22;79.04;101149.17;431761;1274;128476;-64
2022/01/23 20:44:25;;;;;;;79.20;48.70;;;;;;;-1.22;79.08;101160.18;429292;1274;142553;-65
2022/01/23 20:54:31;;;;;;;83.90;48.20;;;;;;;-1.33;78.89;101162.48;429900;1274;144220;-63
2022/01/23 21:04:37;;;;;;;92.80;62.10;;;;;;;-1.43;79.04;101166.66;436408;1273;142090;-63
2022/01/23 21:14:51;;;;;;;100.10;62.40;;;;;;;-1.50;79.06;101165.89;432140;1273;142486;-62
2022/01/23 21:45:45;;;;;;;53.40;32.40;;;;;;;-1.61;79.26;101206.14;431275;1274;143236;-64
2022/01/23 21:55:51;;;;;;;49.50;30.20;;;;;;;-1.61;79.50;101224.52;430978;1273;142477;-63
2022/01/23 22:05:57;;;;;;;38.00;23.40;;;;;;;-1.59;79.51;101224.88;429938;1274;143989;-64
2022/01/23 22:16:06;;;;;;;33.50;21.70;;;;;;;-1.61;79.42;101228.30;431426;1274;143934;-64
2022/01/23 22:36:38;;;;;;;31.50;21.70;;;;;;;-1.64;79.50;101220.86;432263;1274;372785;-60
2022/01/23 22:46:45;;;;;;;39.10;22.50;;;;;;;-1.64;79.67;101217.77;430168;1274;145617;-60
2022/01/23 22:56:49;;;;;;;;;;;;;;;-1.63;79.59;101217.45;429801;1274;145788;-59
2022/01/23 23:06:55;;;;;;;49.30;29.00;;;;;;;-1.63;79.77;101218.81;431613;1274;132179;-59
2022/01/23 23:17:03;;;;;;;47.60;29.60;;;;;;;-1.62;80.00;101213.86;429254;1274;144128;-61
2022/01/23 23:27:09;;;;;;;50.90;28.90;;;;;;;-1.65;79.76;101216.21;430153;1274;145875;-61
2022/01/23 23:37:15;;;;;;;53.40;30.60;;;;;;;-1.72;79.95;101224.04;429844;1274;142196;-61
2022/01/23 23:47:21;;;;;;;47.70;30.10;;;;;;;-1.77;79.88;101221.55;430359;1274;144512;-60
2022/01/23 23:57:27;;;;;;;49.30;29.90;;;;;;;-1.87;79.95;101215.77;433211;1273;142444;-62
